Aviation Digital Data Service (ADDS)

Output produced by METARs form (1132 UTC 28 September 2021)
found at http://www.aviationweather.gov/metar/data/
 
KDLH 281055Z 14006KT 1/2SM R09/3500V5000FT FG VV002 10/10 A2996 RMK AO2 SLP151 T01000100
KDLH 281128Z 2812/2912 12006KT 3SM BR OVC002 
     TEMPO 2812/2813 1/2SM FG 
     FM281300 VRB04KT P6SM FEW014 
     FM281500 18007G15KT P6SM FEW070 
     FM290000 17005KT P6SM SKC 
     FM290900 13005KT 2SM BR SCT250